Terminal Aerodrome Forecast
Issued by NWS Paducah, KY

Home | Current Version | Previous Version | Text Only | Print | Product List | Glossary Off
Versions: 1 2 3 4 5 6 7 8 9 10 11 12 13 14 15 16

000
FTUS43 KPAH 121700
TAFEVV
TAF
KEVV 121740Z 1218/1318 21008KT P6SM SCT050 BKN100
      TEMPO 1218/1219 2SM -TSRA BR BKN035CB
     FM130000 21005KT P6SM BKN250
     FM131500 22012KT P6SM VCSH SCT050 BKN100=

USA.gov is the U.S. government's official web portal to all federal, state and local government web resources and services.